createdAt,value
2022-09-02T10:36:33.409Z,10.60
2022-09-02T10:37:34.249Z,9.40
2022-09-02T10:38:33.259Z,8.20
2022-09-02T10:39:33.227Z,8.60
2022-09-02T10:40:33.236Z,10.10
2022-09-02T10:41:33.206Z,7.90
2022-09-02T10:42:33.160Z,7.90
2022-09-02T10:43:33.570Z,10.90
2022-09-02T10:44:33.129Z,10.10
2022-09-02T10:45:33.124Z,11.40
2022-09-02T10:46:33.162Z,8.20
2022-09-02T10:47:33.096Z,8.10
2022-09-02T10:48:33.130Z,6.10
2022-09-02T10:49:33.047Z,9.70
2022-09-02T10:50:33.047Z,7.00
2022-09-02T10:51:33.051Z,7.40
2022-09-02T10:52:33.016Z,8.20
2022-09-02T10:53:33.005Z,8.70
2022-09-02T10:54:32.985Z,9.80
2022-09-02T10:55:33.026Z,11.90
2022-09-02T10:56:32.978Z,8.60
2022-09-02T10:57:32.955Z,10.10
2022-09-02T10:58:32.976Z,9.40
2022-09-02T10:59:32.945Z,8.20
2022-09-02T11:00:33.052Z,6.80
2022-09-02T11:01:33.086Z,8.40
2022-09-02T11:02:33.387Z,10.10
2022-09-02T11:03:33.419Z,8.10
2022-09-02T11:04:32.966Z,9.90
2022-09-02T11:05:32.943Z,10.30
2022-09-02T11:06:51.907Z,8.10
2022-09-02T11:07:34.101Z,9.40
2022-09-02T11:08:33.016Z,6.50
2022-09-02T11:09:32.931Z,8.30
2022-09-02T11:10:32.957Z,8.60
2022-09-02T11:11:32.834Z,10.10
2022-09-02T11:12:33.076Z,7.70
2022-09-02T11:13:32.864Z,7.90
2022-09-02T11:14:32.933Z,12.70
2022-09-02T11:15:35.947Z,9.60
2022-09-02T11:16:32.867Z,12.80
2022-09-02T11:17:32.720Z,7.90
2022-09-02T11:18:32.815Z,13.60
2022-09-02T11:19:32.753Z,6.70
2022-09-02T11:20:32.754Z,10.70
2022-09-02T11:21:32.766Z,6.90
2022-09-02T11:22:32.881Z,12.10
2022-09-02T11:23:32.700Z,8.70
2022-09-02T11:24:32.685Z,9.70
2022-09-02T11:25:32.717Z,10.20
2022-09-02T11:26:32.731Z,8.10
2022-09-02T11:27:42.029Z,9.00
2022-09-02T11:28:33.550Z,9.30
2022-09-02T11:29:32.563Z,11.50
2022-09-02T11:30:32.558Z,12.70
2022-09-02T11:31:34.610Z,8.20
2022-09-02T11:32:32.606Z,14.20
2022-09-02T11:33:32.727Z,12.60
2022-09-02T11:34:32.514Z,12.10
2022-09-02T11:35:32.511Z,12.10
2022-09-02T11:36:33.844Z,13.00
2022-09-02T11:37:32.472Z,10.70
2022-09-02T11:38:32.419Z,17.40
2022-09-02T11:39:49.557Z,10.60
2022-09-02T11:40:34.875Z,12.00
2022-09-02T11:41:35.800Z,14.50
2022-09-02T11:42:32.429Z,12.80
2022-09-02T11:43:32.378Z,14.80
2022-09-02T11:44:32.356Z,11.40
2022-09-02T11:45:32.408Z,9.90
2022-09-02T11:46:32.362Z,14.40
2022-09-02T11:47:32.324Z,12.70
2022-09-02T11:48:32.316Z,9.00
2022-09-02T11:49:32.373Z,15.60
2022-09-02T11:50:35.790Z,14.50
2022-09-02T11:51:33.259Z,17.50
2022-09-02T11:52:32.251Z,13.00
2022-09-02T11:53:32.305Z,11.40
2022-09-02T11:54:32.277Z,10.60
2022-09-02T11:55:32.222Z,9.50
2022-09-02T11:56:32.237Z,8.40
2022-09-02T11:57:32.287Z,7.70
2022-09-02T11:58:32.176Z,9.90
2022-09-02T11:59:32.235Z,14.30
2022-09-02T12:00:32.147Z,11.70
2022-09-02T12:01:33.253Z,8.70
2022-09-02T12:02:32.134Z,8.00
2022-09-02T12:03:58.653Z,10.70
2022-09-02T12:04:59.271Z,10.20
2022-09-02T12:05:33.198Z,6.50
2022-09-02T12:06:32.230Z,14.60
2022-09-02T12:07:33.851Z,12.70
2022-09-02T12:08:32.054Z,12.70
2022-09-02T12:09:32.013Z,9.70
2022-09-02T12:10:32.064Z,10.50
2022-09-02T12:11:31.984Z,7.70
2022-09-02T12:12:31.985Z,9.90
2022-09-02T12:13:31.975Z,10.10
2022-09-02T12:14:32.717Z,6.70
2022-09-02T12:15:31.927Z,8.50
2022-09-02T12:16:31.916Z,7.20
2022-09-02T12:17:31.980Z,7.80
2022-09-02T12:18:32.013Z,8.50
2022-09-02T12:19:31.893Z,10.30
2022-09-02T12:20:31.892Z,10.10
2022-09-02T12:21:31.863Z,9.50
2022-09-02T12:22:31.866Z,12.00
2022-09-02T12:23:31.910Z,10.40
2022-09-02T12:24:31.847Z,12.50
2022-09-02T12:25:31.793Z,10.60
2022-09-02T12:26:31.789Z,9.10
2022-09-02T12:27:31.785Z,9.80
2022-09-02T12:28:31.755Z,10.60
2022-09-02T12:29:31.772Z,7.40
2022-09-02T12:30:31.763Z,7.40
2022-09-02T12:31:31.806Z,6.70
2022-09-02T12:32:31.744Z,9.10
2022-09-02T12:33:31.752Z,10.10
2022-09-02T12:34:31.693Z,8.50
2022-09-02T12:35:31.789Z,14.10
2022-09-02T12:36:31.681Z,16.60
2022-09-02T12:37:31.674Z,12.20
2022-09-02T12:38:31.656Z,9.10
2022-09-02T12:39:31.621Z,9.30
2022-09-02T12:40:32.258Z,11.20
2022-09-02T12:41:31.598Z,8.80
2022-09-02T12:42:31.601Z,6.30
2022-09-02T12:43:31.572Z,4.50
2022-09-02T12:44:31.581Z,7.80
2022-09-02T12:45:31.552Z,6.20
2022-09-02T12:46:31.629Z,6.70
2022-09-02T12:47:31.511Z,6.20
2022-09-02T12:48:38.239Z,9.70
2022-09-02T12:49:32.490Z,11.30
2022-09-02T12:50:31.492Z,10.20
2022-09-02T12:51:31.479Z,7.80
2022-09-02T12:52:31.452Z,4.80
2022-09-02T12:53:31.441Z,5.60
2022-09-02T12:54:31.474Z,5.30
2022-09-02T12:55:31.440Z,8.50
2022-09-02T12:56:31.441Z,6.30
2022-09-02T12:57:31.409Z,7.20
2022-09-02T12:58:31.390Z,8.30
2022-09-02T12:59:31.383Z,15.50
2022-09-02T13:00:31.450Z,8.70
2022-09-02T13:01:31.490Z,6.90
2022-09-02T13:02:31.320Z,10.50
2022-09-02T13:03:31.296Z,8.40
2022-09-02T13:04:31.307Z,7.80
2022-09-02T13:05:31.300Z,6.40
2022-09-02T13:06:31.273Z,6.90
2022-09-02T13:07:31.258Z,6.00
2022-09-02T13:08:31.239Z,12.60
2022-09-02T13:09:31.230Z,6.90
2022-09-02T13:10:31.180Z,8.50
2022-09-02T13:11:31.207Z,18.50
2022-09-02T13:12:31.198Z,12.50
2022-09-02T13:13:31.161Z,7.60
2022-09-02T13:14:31.190Z,10.00
2022-09-02T13:15:31.159Z,17.10
2022-09-02T13:16:31.120Z,13.80
2022-09-02T13:17:36.367Z,11.00
2022-09-02T13:18:32.156Z,11.10
2022-09-02T13:19:31.087Z,23.50
2022-09-02T13:20:31.107Z,36.90
2022-09-02T13:21:31.059Z,26.20
2022-09-02T13:22:31.368Z,37.60
2022-09-02T13:23:31.673Z,11.30
2022-09-02T13:24:31.038Z,7.70
2022-09-02T13:25:31.050Z,19.90
2022-09-02T13:26:48.497Z,45.80
2022-09-02T13:27:32.025Z,38.80
2022-09-02T13:28:30.979Z,38.50
2022-09-02T13:29:31.367Z,33.30
2022-09-02T13:30:30.958Z,24.10
2022-09-02T13:31:31.002Z,14.00
2022-09-02T13:32:30.937Z,15.20
2022-09-02T13:33:30.918Z,14.40
2022-09-02T13:34:31.332Z,12.40
2022-09-02T13:35:30.938Z,8.40
2022-09-02T13:36:30.953Z,8.70
2022-09-02T13:37:30.940Z,6.50
2022-09-02T13:38:30.974Z,5.00
2022-09-02T13:39:30.826Z,6.80
2022-09-02T13:40:30.874Z,6.50
2022-09-02T13:41:30.823Z,3.80
2022-09-02T13:42:32.910Z,5.50
2022-09-02T13:43:30.786Z,7.80
2022-09-02T13:44:30.755Z,7.30
2022-09-02T13:45:30.768Z,6.80
2022-09-02T13:46:30.814Z,7.10
2022-09-02T13:47:30.749Z,7.10
2022-09-02T13:48:30.708Z,6.40
2022-09-02T13:49:40.233Z,7.40
2022-09-02T13:50:30.698Z,6.40
2022-09-02T13:51:30.724Z,5.40
2022-09-02T13:53:12.375Z,22.20
2022-09-02T13:54:11.612Z,37.90
2022-09-02T13:54:31.706Z,21.60
2022-09-02T13:55:30.633Z,15.20
2022-09-02T13:56:30.714Z,14.60
2022-09-02T13:57:30.600Z,6.20
2022-09-02T13:58:30.578Z,17.40
2022-09-02T13:59:30.605Z,20.00
2022-09-02T14:00:31.185Z,12.60
2022-09-02T14:01:30.867Z,5.90
2022-09-02T14:02:30.671Z,6.50
2022-09-02T14:03:30.665Z,6.50
2022-09-02T14:04:30.506Z,9.30
2022-09-02T15:36:33.058Z,6.80
2022-09-02T15:37:32.213Z,6.60
2022-09-02T15:50:25.165Z,10.30
2022-09-02T15:50:56.933Z,7.20
2022-09-02T15:51:58.753Z,8.50
2022-09-02T15:52:59.644Z,8.10
2022-09-02T15:53:56.595Z,9.90
2022-09-02T15:54:56.733Z,9.60
2022-09-02T15:56:13.095Z,6.40
2022-09-02T15:56:59.058Z,8.30
2022-09-02T15:57:58.659Z,7.40
2022-09-02T15:58:57.043Z,8.00
2022-09-02T16:00:18.577Z,13.80
2022-09-02T16:15:37.085Z,17.20
2022-09-02T16:16:37.663Z,18.10
2022-09-02T16:17:36.588Z,29.30
2022-09-02T16:18:36.530Z,20.00
2022-09-02T16:19:36.538Z,16.40
2022-09-02T16:20:36.488Z,13.80
2022-09-02T16:21:36.523Z,10.00
2022-09-02T16:22:36.501Z,7.40
2022-09-02T16:23:36.456Z,9.20
2022-09-02T16:24:36.505Z,9.70
2022-09-02T16:25:36.474Z,10.00
2022-09-02T16:26:36.421Z,8.10
2022-09-02T16:27:36.490Z,7.20
2022-09-02T16:28:36.422Z,9.30
2022-09-02T16:29:36.383Z,8.20
2022-09-02T16:30:36.405Z,10.60
2022-09-02T16:31:36.365Z,7.40
2022-09-02T16:32:36.403Z,6.20
2022-09-02T16:33:36.332Z,9.00
2022-09-02T16:34:36.332Z,8.30
2022-09-02T16:35:36.335Z,8.10
2022-09-02T16:36:36.337Z,8.40
2022-09-02T16:37:36.265Z,8.70
2022-09-02T16:38:36.302Z,9.20
2022-09-02T16:39:36.383Z,9.00
2022-09-02T16:40:36.282Z,7.80
2022-09-02T16:41:36.287Z,7.80
2022-09-02T16:42:38.445Z,9.00
2022-09-02T16:43:37.249Z,10.80
2022-09-02T16:44:36.263Z,8.60
2022-09-02T16:45:36.211Z,6.60
2022-09-02T16:46:36.300Z,11.60
2022-09-02T16:47:36.209Z,7.50
2022-09-02T16:48:36.235Z,9.00
2022-09-02T16:49:36.111Z,7.00
2022-09-02T16:50:36.147Z,7.50
2022-09-02T16:51:36.468Z,8.00
2022-09-02T16:52:36.178Z,5.90
2022-09-02T16:53:36.623Z,7.90
2022-09-02T16:54:38.745Z,7.00
2022-09-02T16:55:38.579Z,7.20
2022-09-02T16:56:36.046Z,6.50
2022-09-02T16:57:36.038Z,9.50
2022-09-02T16:58:36.014Z,6.60
2022-09-02T16:59:36.012Z,8.20
2022-09-02T17:00:36.029Z,10.80
2022-09-02T17:01:36.931Z,8.00
2022-09-02T17:02:36.007Z,5.20
2022-09-02T17:03:35.955Z,4.60
2022-09-02T17:04:35.956Z,5.00
2022-09-02T17:05:36.012Z,5.40
2022-09-02T17:06:39.882Z,8.30
2022-09-02T17:07:36.887Z,5.70
2022-09-02T17:08:35.866Z,8.10
2022-09-02T17:09:35.892Z,5.80
2022-09-02T17:10:35.848Z,4.80
2022-09-02T17:11:35.896Z,4.20
2022-09-02T17:12:38.535Z,3.10
2022-09-02T17:13:36.905Z,4.00
2022-09-02T17:14:35.791Z,4.70
2022-09-02T17:15:35.918Z,5.00
2022-09-02T17:16:35.886Z,3.60
2022-09-02T17:17:35.745Z,2.80
2022-09-02T17:18:35.808Z,3.80
2022-09-02T17:19:35.707Z,4.50
2022-09-02T17:20:35.765Z,4.60
2022-09-02T17:21:35.707Z,5.50
2022-09-02T17:22:35.674Z,4.60
2022-09-02T17:23:35.669Z,5.90
2022-09-02T17:24:35.642Z,5.10
2022-09-02T17:25:35.689Z,2.40
2022-09-02T17:26:35.643Z,6.20
2022-09-02T17:27:35.668Z,4.80
2022-09-02T17:28:35.673Z,3.60
2022-09-02T17:29:50.908Z,3.60
2022-09-02T17:30:36.666Z,4.10
2022-09-02T17:31:35.577Z,4.60
2022-09-02T17:32:35.621Z,3.70
2022-09-02T17:33:35.603Z,5.10
2022-09-02T18:19:26.099Z,7.10
2022-09-02T18:20:26.259Z,5.70
2022-09-02T18:21:25.144Z,8.50
2022-09-02T18:22:25.061Z,9.10
2022-09-02T18:23:25.130Z,8.30
2022-09-02T18:24:25.112Z,6.00
2022-09-02T18:25:25.063Z,7.20
2022-09-02T18:26:25.039Z,7.60
2022-09-02T18:27:25.055Z,6.60
2022-09-02T18:28:26.489Z,7.20
2022-09-02T18:29:24.999Z,9.30
2022-09-02T18:30:25.003Z,7.30
2022-09-02T18:31:24.968Z,6.00
2022-09-02T18:32:24.982Z,8.60
2022-09-02T18:33:24.891Z,8.50
2022-09-02T18:34:28.438Z,9.80
2022-09-02T18:35:25.890Z,9.00
2022-09-02T18:36:24.860Z,8.10
2022-09-02T18:37:24.866Z,5.40
2022-09-02T18:38:24.992Z,7.50
2022-09-02T18:39:24.870Z,6.40
2022-09-02T18:40:24.823Z,7.90
2022-09-02T18:41:24.820Z,8.10
2022-09-02T18:42:24.768Z,8.00
2022-09-02T18:43:24.787Z,5.40
2022-09-02T18:44:24.738Z,9.50
2022-09-02T18:45:24.726Z,6.80
2022-09-02T18:46:24.732Z,10.60
2022-09-02T18:47:24.717Z,6.50
2022-09-02T18:48:24.865Z,7.00
2022-09-02T18:49:24.675Z,8.60
2022-09-02T18:50:47.581Z,7.90
2022-09-02T18:51:25.646Z,5.40
2022-09-02T18:52:24.646Z,6.40
2022-09-02T18:53:24.644Z,8.60
2022-09-02T18:54:24.624Z,7.80
2022-09-02T18:55:24.624Z,6.30
2022-09-02T18:56:24.655Z,6.60
2022-09-02T18:57:24.606Z,6.80
2022-09-02T18:58:24.634Z,5.80
2022-09-02T18:59:28.540Z,6.80
2022-09-02T19:00:24.566Z,6.50
2022-09-02T19:01:24.605Z,8.10
2022-09-02T19:02:24.608Z,10.90
2022-09-02T19:03:24.552Z,7.80
2022-09-02T19:04:29.107Z,7.30
2022-09-02T19:05:25.484Z,7.50
2022-09-02T19:06:24.463Z,7.10
2022-09-02T19:07:24.463Z,9.20
2022-09-02T19:08:24.636Z,6.80
2022-09-02T19:09:24.453Z,6.40
2022-09-02T19:10:24.441Z,8.30
2022-09-02T19:11:24.391Z,7.60
2022-09-02T19:12:24.393Z,7.30
2022-09-02T19:13:24.375Z,7.70
2022-09-02T19:14:24.384Z,7.40
2022-09-02T19:15:25.064Z,10.40
2022-09-02T19:16:24.415Z,6.30
2022-09-02T19:17:24.571Z,9.40
2022-09-02T19:18:24.364Z,9.60
2022-09-02T19:19:24.320Z,7.80
2022-09-02T19:20:24.291Z,8.30
2022-09-02T19:21:24.299Z,8.10
2022-09-02T19:22:24.311Z,10.20
2022-09-02T19:23:24.318Z,10.80
2022-09-02T19:24:24.255Z,7.60
2022-09-02T19:25:24.209Z,9.50
2022-09-02T19:26:24.223Z,8.30
2022-09-02T19:27:24.229Z,9.60
2022-09-02T19:28:24.308Z,7.40
2022-09-02T19:29:25.383Z,5.80
2022-09-02T19:30:24.148Z,8.80
2022-09-02T19:31:24.191Z,7.00
2022-09-02T19:32:24.193Z,6.60
2022-09-02T19:33:24.128Z,7.60
2022-09-02T19:34:24.132Z,7.40
2022-09-02T19:35:24.130Z,10.00
2022-09-02T19:36:24.090Z,7.90
2022-09-02T19:37:24.069Z,7.50
